sensor_id;sensor_type;location;lat;lon;timestamp;temperature;humidity
8945;DHT22;4507;40.232;29.132;2022-07-18T00:01:11;23.50;70.70
8945;DHT22;4507;40.232;29.132;2022-07-18T00:03:40;23.60;71.00
8945;DHT22;4507;40.232;29.132;2022-07-18T00:06:10;23.60;71.10
8945;DHT22;4507;40.232;29.132;2022-07-18T00:08:39;23.60;71.30
8945;DHT22;4507;40.232;29.132;2022-07-18T00:11:07;23.60;71.30
8945;DHT22;4507;40.232;29.132;2022-07-18T00:13:36;23.60;71.50
8945;DHT22;4507;40.232;29.132;2022-07-18T00:16:05;23.50;71.50
8945;DHT22;4507;40.232;29.132;2022-07-18T00:18:34;23.50;71.50
8945;DHT22;4507;40.232;29.132;2022-07-18T00:21:03;23.40;71.50
8945;DHT22;4507;40.232;29.132;2022-07-18T00:23:33;23.50;71.60
8945;DHT22;4507;40.232;29.132;2022-07-18T00:26:02;23.50;71.70
8945;DHT22;4507;40.232;29.132;2022-07-18T00:28:31;23.50;71.60
8945;DHT22;4507;40.232;29.132;2022-07-18T00:31:02;23.50;71.60
8945;DHT22;4507;40.232;29.132;2022-07-18T00:33:31;23.50;71.60
8945;DHT22;4507;40.232;29.132;2022-07-18T00:36:00;23.50;71.50
8945;DHT22;4507;40.232;29.132;2022-07-18T00:38:28;23.50;71.50
8945;DHT22;4507;40.232;29.132;2022-07-18T00:40:59;23.50;71.40
8945;DHT22;4507;40.232;29.132;2022-07-18T00:43:28;23.50;71.40
8945;DHT22;4507;40.232;29.132;2022-07-18T00:45:56;23.50;71.30
8945;DHT22;4507;40.232;29.132;2022-07-18T00:48:25;23.50;71.10
8945;DHT22;4507;40.232;29.132;2022-07-18T00:50:53;23.50;71.00
8945;DHT22;4507;40.232;29.132;2022-07-18T00:53:22;23.50;71.00
8945;DHT22;4507;40.232;29.132;2022-07-18T00:55:51;23.50;71.00
8945;DHT22;4507;40.232;29.132;2022-07-18T00:58:21;23.50;70.90
8945;DHT22;4507;40.232;29.132;2022-07-18T01:00:50;23.50;71.00
8945;DHT22;4507;40.232;29.132;2022-07-18T01:03:36;23.50;71.00
8945;DHT22;4507;40.232;29.132;2022-07-18T01:06:05;23.50;71.70
8945;DHT22;4507;40.232;29.132;2022-07-18T01:08:34;23.50;71.10
8945;DHT22;4507;40.232;29.132;2022-07-18T01:11:02;23.40;71.10
8945;DHT22;4507;40.232;29.132;2022-07-18T01:13:51;23.50;71.20
8945;DHT22;4507;40.232;29.132;2022-07-18T01:16:20;23.40;70.90
8945;DHT22;4507;40.232;29.132;2022-07-18T01:18:50;23.40;70.90
8945;DHT22;4507;40.232;29.132;2022-07-18T01:21:38;23.40;70.80
8945;DHT22;4507;40.232;29.132;2022-07-18T01:24:07;23.40;70.80
8945;DHT22;4507;40.232;29.132;2022-07-18T01:26:36;23.40;70.80
8945;DHT22;4507;40.232;29.132;2022-07-18T01:29:06;23.30;70.80
8945;DHT22;4507;40.232;29.132;2022-07-18T01:31:34;23.30;70.70
8945;DHT22;4507;40.232;29.132;2022-07-18T01:34:03;23.30;70.70
8945;DHT22;4507;40.232;29.132;2022-07-18T01:36:32;23.30;70.70
8945;DHT22;4507;40.232;29.132;2022-07-18T01:39:02;23.30;70.60
8945;DHT22;4507;40.232;29.132;2022-07-18T01:41:54;23.30;70.60
8945;DHT22;4507;40.232;29.132;2022-07-18T01:44:22;23.20;70.50
8945;DHT22;4507;40.232;29.132;2022-07-18T01:46:51;23.20;70.60
8945;DHT22;4507;40.232;29.132;2022-07-18T01:49:20;23.20;70.60
8945;DHT22;4507;40.232;29.132;2022-07-18T01:51:50;23.20;70.80
8945;DHT22;4507;40.232;29.132;2022-07-18T01:54:21;23.10;71.60
8945;DHT22;4507;40.232;29.132;2022-07-18T01:56:50;23.10;71.10
8945;DHT22;4507;40.232;29.132;2022-07-18T01:59:19;23.00;71.30
8945;DHT22;4507;40.232;29.132;2022-07-18T02:01:48;23.00;71.60
8945;DHT22;4507;40.232;29.132;2022-07-18T02:04:16;23.00;71.90
8945;DHT22;4507;40.232;29.132;2022-07-18T02:06:45;22.90;72.20
8945;DHT22;4507;40.232;29.132;2022-07-18T02:09:14;22.90;72.40
8945;DHT22;4507;40.232;29.132;2022-07-18T02:11:44;22.90;72.70
8945;DHT22;4507;40.232;29.132;2022-07-18T02:14:12;22.90;72.90
8945;DHT22;4507;40.232;29.132;2022-07-18T02:16:41;22.80;72.90
8945;DHT22;4507;40.232;29.132;2022-07-18T02:19:10;22.80;72.90
8945;DHT22;4507;40.232;29.132;2022-07-18T02:21:39;22.70;72.90
8945;DHT22;4507;40.232;29.132;2022-07-18T02:24:07;22.70;73.00
8945;DHT22;4507;40.232;29.132;2022-07-18T02:26:36;22.60;73.00
8945;DHT22;4507;40.232;29.132;2022-07-18T02:29:06;22.60;73.20
8945;DHT22;4507;40.232;29.132;2022-07-18T02:31:35;22.60;73.30
8945;DHT22;4507;40.232;29.132;2022-07-18T02:34:04;22.60;73.30
8945;DHT22;4507;40.232;29.132;2022-07-18T02:36:37;22.60;73.30
8945;DHT22;4507;40.232;29.132;2022-07-18T02:39:06;22.60;73.30
8945;DHT22;4507;40.232;29.132;2022-07-18T02:41:35;22.60;73.10
8945;DHT22;4507;40.232;29.132;2022-07-18T02:44:05;22.60;73.00
8945;DHT22;4507;40.232;29.132;2022-07-18T02:46:34;22.60;72.90
8945;DHT22;4507;40.232;29.132;2022-07-18T02:49:03;22.60;73.00
8945;DHT22;4507;40.232;29.132;2022-07-18T02:51:32;22.60;73.00
8945;DHT22;4507;40.232;29.132;2022-07-18T02:54:01;22.60;72.90
8945;DHT22;4507;40.232;29.132;2022-07-18T02:56:29;22.60;72.80
8945;DHT22;4507;40.232;29.132;2022-07-18T02:58:58;22.60;73.40
8945;DHT22;4507;40.232;29.132;2022-07-18T03:01:29;22.60;72.80
8945;DHT22;4507;40.232;29.132;2022-07-18T03:03:57;22.50;72.60
8945;DHT22;4507;40.232;29.132;2022-07-18T03:06:28;22.50;72.60
8945;DHT22;4507;40.232;29.132;2022-07-18T03:08:56;22.50;72.70
8945;DHT22;4507;40.232;29.132;2022-07-18T03:11:25;22.50;72.60
8945;DHT22;4507;40.232;29.132;2022-07-18T03:13:54;22.40;72.50
8945;DHT22;4507;40.232;29.132;2022-07-18T03:16:22;22.50;72.60
8945;DHT22;4507;40.232;29.132;2022-07-18T03:18:53;22.50;72.50
8945;DHT22;4507;40.232;29.132;2022-07-18T03:21:22;22.60;72.60
8945;DHT22;4507;40.232;29.132;2022-07-18T03:23:51;22.60;72.70
8945;DHT22;4507;40.232;29.132;2022-07-18T03:26:19;22.60;72.80
8945;DHT22;4507;40.232;29.132;2022-07-18T03:28:48;22.60;72.90
8945;DHT22;4507;40.232;29.132;2022-07-18T03:31:17;22.70;73.10
8945;DHT22;4507;40.232;29.132;2022-07-18T03:33:45;22.70;73.90
8945;DHT22;4507;40.232;29.132;2022-07-18T03:36:16;22.70;73.30
8945;DHT22;4507;40.232;29.132;2022-07-18T03:38:45;22.70;73.40
8945;DHT22;4507;40.232;29.132;2022-07-18T03:41:14;22.70;73.50
8945;DHT22;4507;40.232;29.132;2022-07-18T03:43:42;22.80;73.60
8945;DHT22;4507;40.232;29.132;2022-07-18T03:46:11;22.90;73.80
8945;DHT22;4507;40.232;29.132;2022-07-18T03:48:40;22.80;73.70
8945;DHT22;4507;40.232;29.132;2022-07-18T03:51:09;22.80;73.80
8945;DHT22;4507;40.232;29.132;2022-07-18T03:53:39;22.80;73.90
8945;DHT22;4507;40.232;29.132;2022-07-18T03:56:08;22.80;74.00
8945;DHT22;4507;40.232;29.132;2022-07-18T03:58:37;22.90;74.10
8945;DHT22;4507;40.232;29.132;2022-07-18T04:01:06;22.90;74.10
8945;DHT22;4507;40.232;29.132;2022-07-18T04:03:34;22.90;74.20
8945;DHT22;4507;40.232;29.132;2022-07-18T04:06:03;22.90;74.20
8945;DHT22;4507;40.232;29.132;2022-07-18T04:08:32;22.90;74.20
8945;DHT22;4507;40.232;29.132;2022-07-18T04:11:02;22.90;74.10
8945;DHT22;4507;40.232;29.132;2022-07-18T04:13:31;23.00;74.10
8945;DHT22;4507;40.232;29.132;2022-07-18T04:16:00;23.00;74.00
8945;DHT22;4507;40.232;29.132;2022-07-18T04:18:47;23.10;74.00
8945;DHT22;4507;40.232;29.132;2022-07-18T04:21:16;23.10;73.90
8945;DHT22;4507;40.232;29.132;2022-07-18T04:23:45;23.10;73.80
8945;DHT22;4507;40.232;29.132;2022-07-18T04:26:15;23.10;73.70
8945;DHT22;4507;40.232;29.132;2022-07-18T04:28:44;23.20;73.80
8945;DHT22;4507;40.232;29.132;2022-07-18T04:31:12;23.20;73.70
8945;DHT22;4507;40.232;29.132;2022-07-18T04:33:41;23.30;73.70
8945;DHT22;4507;40.232;29.132;2022-07-18T04:36:10;23.30;73.60
8945;DHT22;4507;40.232;29.132;2022-07-18T04:38:38;23.30;73.30
8945;DHT22;4507;40.232;29.132;2022-07-18T04:41:07;23.40;73.20
8945;DHT22;4507;40.232;29.132;2022-07-18T04:43:37;23.50;73.00
8945;DHT22;4507;40.232;29.132;2022-07-18T04:46:06;23.50;72.70
8945;DHT22;4507;40.232;29.132;2022-07-18T04:48:35;23.50;72.50
8945;DHT22;4507;40.232;29.132;2022-07-18T04:51:05;23.70;72.40
8945;DHT22;4507;40.232;29.132;2022-07-18T04:53:34;23.70;72.10
8945;DHT22;4507;40.232;29.132;2022-07-18T04:56:02;23.80;71.80
8945;DHT22;4507;40.232;29.132;2022-07-18T04:58:31;24.00;71.80
8945;DHT22;4507;40.232;29.132;2022-07-18T05:01:01;23.90;71.60
8945;DHT22;4507;40.232;29.132;2022-07-18T05:03:30;24.00;71.50
8945;DHT22;4507;40.232;29.132;2022-07-18T05:05:58;24.00;70.90
8945;DHT22;4507;40.232;29.132;2022-07-18T05:08:27;24.00;70.20
8945;DHT22;4507;40.232;29.132;2022-07-18T05:10:56;24.10;69.90
8945;DHT22;4507;40.232;29.132;2022-07-18T05:13:25;24.20;69.80
8945;DHT22;4507;40.232;29.132;2022-07-18T05:15:53;24.30;69.70
8945;DHT22;4507;40.232;29.132;2022-07-18T05:18:23;24.30;69.40
8945;DHT22;4507;40.232;29.132;2022-07-18T05:20:52;24.40;68.90
8945;DHT22;4507;40.232;29.132;2022-07-18T05:23:21;24.40;68.50
8945;DHT22;4507;40.232;29.132;2022-07-18T05:25:51;24.50;68.20
8945;DHT22;4507;40.232;29.132;2022-07-18T05:28:19;24.60;67.80
8945;DHT22;4507;40.232;29.132;2022-07-18T05:30:48;24.70;67.50
8945;DHT22;4507;40.232;29.132;2022-07-18T05:33:17;24.70;66.90
8945;DHT22;4507;40.232;29.132;2022-07-18T05:36:06;24.80;66.60
8945;DHT22;4507;40.232;29.132;2022-07-18T05:38:35;24.90;66.30
8945;DHT22;4507;40.232;29.132;2022-07-18T05:41:04;24.90;65.80
8945;DHT22;4507;40.232;29.132;2022-07-18T05:43:33;25.00;65.60
8945;DHT22;4507;40.232;29.132;2022-07-18T05:46:01;25.10;64.90
8945;DHT22;4507;40.232;29.132;2022-07-18T05:48:30;25.20;64.50
8945;DHT22;4507;40.232;29.132;2022-07-18T05:50:59;25.20;64.00
8945;DHT22;4507;40.232;29.132;2022-07-18T05:53:48;25.30;63.60
8945;DHT22;4507;40.232;29.132;2022-07-18T05:56:17;25.40;63.10
8945;DHT22;4507;40.232;29.132;2022-07-18T05:58:46;25.50;62.80
8945;DHT22;4507;40.232;29.132;2022-07-18T06:01:14;25.60;62.60
8945;DHT22;4507;40.232;29.132;2022-07-18T06:03:47;25.60;62.00
8945;DHT22;4507;40.232;29.132;2022-07-18T06:06:16;25.70;61.80
8945;DHT22;4507;40.232;29.132;2022-07-18T06:08:45;25.80;61.70
8945;DHT22;4507;40.232;29.132;2022-07-18T06:11:15;25.90;61.20
8945;DHT22;4507;40.232;29.132;2022-07-18T06:13:44;26.00;60.90
8945;DHT22;4507;40.232;29.132;2022-07-18T06:16:13;26.00;60.60
8945;DHT22;4507;40.232;29.132;2022-07-18T06:18:41;26.10;60.10
8945;DHT22;4507;40.232;29.132;2022-07-18T06:21:10;26.10;59.50
8945;DHT22;4507;40.232;29.132;2022-07-18T06:23:39;26.20;59.00
8945;DHT22;4507;40.232;29.132;2022-07-18T06:26:08;26.30;58.50
8945;DHT22;4507;40.232;29.132;2022-07-18T06:28:38;26.40;58.00
8945;DHT22;4507;40.232;29.132;2022-07-18T06:31:13;26.40;57.40
8945;DHT22;4507;40.232;29.132;2022-07-18T06:33:44;26.50;57.00
8945;DHT22;4507;40.232;29.132;2022-07-18T06:36:13;26.50;56.70
8945;DHT22;4507;40.232;29.132;2022-07-18T06:38:41;26.60;56.30
8945;DHT22;4507;40.232;29.132;2022-07-18T06:41:10;26.60;55.80
8945;DHT22;4507;40.232;29.132;2022-07-18T06:43:40;26.70;55.60
8945;DHT22;4507;40.232;29.132;2022-07-18T06:46:09;26.80;55.50
8945;DHT22;4507;40.232;29.132;2022-07-18T06:48:38;26.80;55.00
8945;DHT22;4507;40.232;29.132;2022-07-18T06:51:09;26.90;54.40
8945;DHT22;4507;40.232;29.132;2022-07-18T06:53:40;26.90;54.00
8945;DHT22;4507;40.232;29.132;2022-07-18T06:56:08;26.90;53.60
8945;DHT22;4507;40.232;29.132;2022-07-18T06:58:37;27.00;53.40
8945;DHT22;4507;40.232;29.132;2022-07-18T07:01:07;27.10;53.40
8945;DHT22;4507;40.232;29.132;2022-07-18T07:03:36;27.20;53.10
8945;DHT22;4507;40.232;29.132;2022-07-18T07:06:05;27.20;53.20
8945;DHT22;4507;40.232;29.132;2022-07-18T07:08:33;27.30;52.90
8945;DHT22;4507;40.232;29.132;2022-07-18T07:11:02;27.40;52.80
8945;DHT22;4507;40.232;29.132;2022-07-18T07:13:31;27.40;52.60
8945;DHT22;4507;40.232;29.132;2022-07-18T07:15:59;27.50;52.20
8945;DHT22;4507;40.232;29.132;2022-07-18T07:18:30;27.50;51.90
8945;DHT22;4507;40.232;29.132;2022-07-18T07:20:59;27.60;51.70
8945;DHT22;4507;40.232;29.132;2022-07-18T07:23:29;27.70;51.40
8945;DHT22;4507;40.232;29.132;2022-07-18T07:25:57;27.70;51.30
8945;DHT22;4507;40.232;29.132;2022-07-18T07:28:26;27.70;50.80
8945;DHT22;4507;40.232;29.132;2022-07-18T07:30:55;27.70;50.60
8945;DHT22;4507;40.232;29.132;2022-07-18T07:33:24;27.80;50.50
8945;DHT22;4507;40.232;29.132;2022-07-18T07:35:54;27.80;50.30
8945;DHT22;4507;40.232;29.132;2022-07-18T07:38:22;27.90;50.20
8945;DHT22;4507;40.232;29.132;2022-07-18T07:40:55;28.00;49.90
8945;DHT22;4507;40.232;29.132;2022-07-18T07:43:23;28.10;49.60
8945;DHT22;4507;40.232;29.132;2022-07-18T07:45:52;28.10;49.40
8945;DHT22;4507;40.232;29.132;2022-07-18T07:48:23;28.20;49.50
8945;DHT22;4507;40.232;29.132;2022-07-18T07:50:53;28.20;49.60
8945;DHT22;4507;40.232;29.132;2022-07-18T07:53:22;28.50;49.70
8945;DHT22;4507;40.232;29.132;2022-07-18T07:55:50;28.40;50.10
8945;DHT22;4507;40.232;29.132;2022-07-18T07:58:19;28.40;49.90
8945;DHT22;4507;40.232;29.132;2022-07-18T08:00:48;28.60;49.90
8945;DHT22;4507;40.232;29.132;2022-07-18T08:03:17;28.60;49.80
8945;DHT22;4507;40.232;29.132;2022-07-18T08:05:46;28.80;49.70
8945;DHT22;4507;40.232;29.132;2022-07-18T08:08:16;28.80;49.00
8945;DHT22;4507;40.232;29.132;2022-07-18T08:10:45;28.90;48.70
8945;DHT22;4507;40.232;29.132;2022-07-18T08:13:15;28.90;48.40
8945;DHT22;4507;40.232;29.132;2022-07-18T08:15:44;28.90;48.10
8945;DHT22;4507;40.232;29.132;2022-07-18T08:18:13;28.90;48.00
8945;DHT22;4507;40.232;29.132;2022-07-18T08:20:42;29.00;48.00
8945;DHT22;4507;40.232;29.132;2022-07-18T08:23:11;29.00;47.80
8945;DHT22;4507;40.232;29.132;2022-07-18T08:25:42;29.10;47.50
8945;DHT22;4507;40.232;29.132;2022-07-18T08:28:11;29.10;47.80
8945;DHT22;4507;40.232;29.132;2022-07-18T08:30:40;29.20;48.00
8945;DHT22;4507;40.232;29.132;2022-07-18T08:33:09;29.20;47.70
8945;DHT22;4507;40.232;29.132;2022-07-18T08:35:38;29.30;47.40
8945;DHT22;4507;40.232;29.132;2022-07-18T08:38:07;29.40;47.20
8945;DHT22;4507;40.232;29.132;2022-07-18T08:40:36;29.40;47.20
8945;DHT22;4507;40.232;29.132;2022-07-18T08:43:07;29.60;46.60
8945;DHT22;4507;40.232;29.132;2022-07-18T08:45:49;29.70;45.90
8945;DHT22;4507;40.232;29.132;2022-07-18T08:48:19;29.70;45.20
8945;DHT22;4507;40.232;29.132;2022-07-18T08:50:48;29.70;45.30
8945;DHT22;4507;40.232;29.132;2022-07-18T08:53:17;29.70;45.30
8945;DHT22;4507;40.232;29.132;2022-07-18T08:55:47;29.80;44.70
8945;DHT22;4507;40.232;29.132;2022-07-18T08:58:18;29.70;44.00
8945;DHT22;4507;40.232;29.132;2022-07-18T09:01:25;29.70;44.30
8945;DHT22;4507;40.232;29.132;2022-07-18T09:03:53;29.80;45.10
8945;DHT22;4507;40.232;29.132;2022-07-18T09:06:42;29.70;44.60
8945;DHT22;4507;40.232;29.132;2022-07-18T09:09:12;29.80;44.50
8945;DHT22;4507;40.232;29.132;2022-07-18T09:11:51;29.90;44.70
8945;DHT22;4507;40.232;29.132;2022-07-18T09:14:28;30.10;45.00
8945;DHT22;4507;40.232;29.132;2022-07-18T09:17:01;30.20;45.30
8945;DHT22;4507;40.232;29.132;2022-07-18T09:19:30;30.30;44.60
8945;DHT22;4507;40.232;29.132;2022-07-18T09:24:53;30.40;44.10
8945;DHT22;4507;40.232;29.132;2022-07-18T09:27:23;30.50;44.20
8945;DHT22;4507;40.232;29.132;2022-07-18T09:30:07;30.60;43.80
8945;DHT22;4507;40.232;29.132;2022-07-18T09:32:39;30.70;43.50
8945;DHT22;4507;40.232;29.132;2022-07-18T09:35:09;30.60;43.20
8945;DHT22;4507;40.232;29.132;2022-07-18T09:37:38;30.70;43.40
8945;DHT22;4507;40.232;29.132;2022-07-18T09:40:14;30.70;43.60
8945;DHT22;4507;40.232;29.132;2022-07-18T09:42:48;30.80;43.70
8945;DHT22;4507;40.232;29.132;2022-07-18T09:45:25;30.90;43.20
8945;DHT22;4507;40.232;29.132;2022-07-18T09:47:55;31.00;43.00
8945;DHT22;4507;40.232;29.132;2022-07-18T09:50:25;31.00;42.80
8945;DHT22;4507;40.232;29.132;2022-07-18T09:56:00;31.10;42.40
8945;DHT22;4507;40.232;29.132;2022-07-18T09:58:31;31.10;42.70
8945;DHT22;4507;40.232;29.132;2022-07-18T10:01:02;31.10;42.30
8945;DHT22;4507;40.232;29.132;2022-07-18T10:03:31;31.10;42.40
8945;DHT22;4507;40.232;29.132;2022-07-18T10:06:01;31.20;42.20
8945;DHT22;4507;40.232;29.132;2022-07-18T10:08:31;31.30;42.10
8945;DHT22;4507;40.232;29.132;2022-07-18T10:11:00;31.20;42.20
8945;DHT22;4507;40.232;29.132;2022-07-18T10:13:29;31.40;42.80
8945;DHT22;4507;40.232;29.132;2022-07-18T10:15:59;31.50;43.00
8945;DHT22;4507;40.232;29.132;2022-07-18T10:18:30;31.60;42.90
8945;DHT22;4507;40.232;29.132;2022-07-18T10:21:02;31.80;43.10
8945;DHT22;4507;40.232;29.132;2022-07-18T10:23:33;31.80;42.80
8945;DHT22;4507;40.232;29.132;2022-07-18T10:26:06;32.00;42.80
8945;DHT22;4507;40.232;29.132;2022-07-18T10:28:35;32.00;42.40
8945;DHT22;4507;40.232;29.132;2022-07-18T10:31:13;32.10;42.70
8945;DHT22;4507;40.232;29.132;2022-07-18T10:33:45;32.00;42.70
8945;DHT22;4507;40.232;29.132;2022-07-18T10:36:16;32.00;42.80
8945;DHT22;4507;40.232;29.132;2022-07-18T10:39:04;32.10;43.00
8945;DHT22;4507;40.232;29.132;2022-07-18T10:44:38;32.10;42.20
8945;DHT22;4507;40.232;29.132;2022-07-18T10:47:08;32.10;41.80
8945;DHT22;4507;40.232;29.132;2022-07-18T10:55:28;32.00;41.50
8945;DHT22;4507;40.232;29.132;2022-07-18T10:58:15;32.00;41.60
8945;DHT22;4507;40.232;29.132;2022-07-18T11:00:45;32.00;41.60
8945;DHT22;4507;40.232;29.132;2022-07-18T11:03:15;31.90;41.90
8945;DHT22;4507;40.232;29.132;2022-07-18T11:05:46;32.00;41.80
8945;DHT22;4507;40.232;29.132;2022-07-18T11:08:18;32.00;42.00
8945;DHT22;4507;40.232;29.132;2022-07-18T11:13:36;32.00;42.20
8945;DHT22;4507;40.232;29.132;2022-07-18T11:16:08;32.20;42.10
8945;DHT22;4507;40.232;29.132;2022-07-18T11:21:43;32.40;42.00
8945;DHT22;4507;40.232;29.132;2022-07-18T11:24:13;32.50;41.20
8945;DHT22;4507;40.232;29.132;2022-07-18T11:26:43;32.60;40.50
8945;DHT22;4507;40.232;29.132;2022-07-18T11:29:14;32.60;39.50
8945;DHT22;4507;40.232;29.132;2022-07-18T11:31:43;32.60;38.50
8945;DHT22;4507;40.232;29.132;2022-07-18T11:34:13;32.70;38.30
8945;DHT22;4507;40.232;29.132;2022-07-18T11:36:42;32.70;37.60
8945;DHT22;4507;40.232;29.132;2022-07-18T11:39:11;32.70;37.80
8945;DHT22;4507;40.232;29.132;2022-07-18T11:41:41;32.90;37.60
8945;DHT22;4507;40.232;29.132;2022-07-18T11:44:17;32.90;37.80
8945;DHT22;4507;40.232;29.132;2022-07-18T11:46:47;33.20;37.90
8945;DHT22;4507;40.232;29.132;2022-07-18T11:49:16;33.40;37.80
8945;DHT22;4507;40.232;29.132;2022-07-18T11:51:45;33.50;37.50
8945;DHT22;4507;40.232;29.132;2022-07-18T11:54:14;33.70;37.60
8945;DHT22;4507;40.232;29.132;2022-07-18T11:56:50;33.80;37.70
8945;DHT22;4507;40.232;29.132;2022-07-18T11:59:21;34.00;37.70
8945;DHT22;4507;40.232;29.132;2022-07-18T12:01:50;34.30;37.50
8945;DHT22;4507;40.232;29.132;2022-07-18T12:04:21;34.40;37.20
8945;DHT22;4507;40.232;29.132;2022-07-18T12:09:33;34.60;37.20
8945;DHT22;4507;40.232;29.132;2022-07-18T12:12:06;34.80;37.10
8945;DHT22;4507;40.232;29.132;2022-07-18T12:14:55;35.00;36.60
8945;DHT22;4507;40.232;29.132;2022-07-18T12:17:24;35.00;36.20
8945;DHT22;4507;40.232;29.132;2022-07-18T12:20:01;34.90;35.60
8945;DHT22;4507;40.232;29.132;2022-07-18T12:22:36;34.70;35.60
8945;DHT22;4507;40.232;29.132;2022-07-18T12:25:05;34.70;36.10
8945;DHT22;4507;40.232;29.132;2022-07-18T12:27:35;34.90;36.30
8945;DHT22;4507;40.232;29.132;2022-07-18T12:30:09;35.00;36.10
8945;DHT22;4507;40.232;29.132;2022-07-18T12:32:40;35.10;35.10
8945;DHT22;4507;40.232;29.132;2022-07-18T12:35:11;34.90;34.30
8945;DHT22;4507;40.232;29.132;2022-07-18T12:37:40;34.70;34.40
8945;DHT22;4507;40.232;29.132;2022-07-18T12:40:12;34.70;34.40
8945;DHT22;4507;40.232;29.132;2022-07-18T12:43:16;34.70;34.30
8945;DHT22;4507;40.232;29.132;2022-07-18T12:45:46;34.80;34.10
8945;DHT22;4507;40.232;29.132;2022-07-18T12:48:34;35.00;33.90
8945;DHT22;4507;40.232;29.132;2022-07-18T12:51:03;34.90;32.90
8945;DHT22;4507;40.232;29.132;2022-07-18T12:53:33;34.90;33.00
8945;DHT22;4507;40.232;29.132;2022-07-18T12:56:02;34.70;32.90
8945;DHT22;4507;40.232;29.132;2022-07-18T12:58:31;34.40;33.40
8945;DHT22;4507;40.232;29.132;2022-07-18T13:01:01;34.20;33.80
8945;DHT22;4507;40.232;29.132;2022-07-18T13:03:33;33.90;33.20
8945;DHT22;4507;40.232;29.132;2022-07-18T13:06:02;33.70;33.30
8945;DHT22;4507;40.232;29.132;2022-07-18T13:08:31;33.60;33.60
8945;DHT22;4507;40.232;29.132;2022-07-18T13:11:00;33.40;33.90
8945;DHT22;4507;40.232;29.132;2022-07-18T13:13:29;33.20;34.80
8945;DHT22;4507;40.232;29.132;2022-07-18T13:15:57;33.00;35.10
8945;DHT22;4507;40.232;29.132;2022-07-18T13:18:28;32.60;35.50
8945;DHT22;4507;40.232;29.132;2022-07-18T13:20:56;32.40;36.30
8945;DHT22;4507;40.232;29.132;2022-07-18T13:23:25;32.20;36.80
8945;DHT22;4507;40.232;29.132;2022-07-18T13:25:53;31.90;37.50
8945;DHT22;4507;40.232;29.132;2022-07-18T13:28:22;31.80;37.40
8945;DHT22;4507;40.232;29.132;2022-07-18T13:30:51;31.60;37.60
8945;DHT22;4507;40.232;29.132;2022-07-18T13:33:19;31.50;37.60
8945;DHT22;4507;40.232;29.132;2022-07-18T13:35:50;31.40;37.90
8945;DHT22;4507;40.232;29.132;2022-07-18T13:38:18;31.30;38.10
8945;DHT22;4507;40.232;29.132;2022-07-18T13:40:47;31.20;38.30
8945;DHT22;4507;40.232;29.132;2022-07-18T13:43:34;31.20;38.90
8945;DHT22;4507;40.232;29.132;2022-07-18T13:46:04;31.20;39.40
8945;DHT22;4507;40.232;29.132;2022-07-18T13:48:34;31.30;39.50
8945;DHT22;4507;40.232;29.132;2022-07-18T13:51:05;31.40;39.30
8945;DHT22;4507;40.232;29.132;2022-07-18T13:53:33;31.50;39.10
8945;DHT22;4507;40.232;29.132;2022-07-18T13:56:02;31.60;39.20
8945;DHT22;4507;40.232;29.132;2022-07-18T13:58:31;31.60;39.10
8945;DHT22;4507;40.232;29.132;2022-07-18T14:01:00;31.50;38.90
8945;DHT22;4507;40.232;29.132;2022-07-18T14:03:29;31.40;39.10
8945;DHT22;4507;40.232;29.132;2022-07-18T14:05:58;31.30;39.40
8945;DHT22;4507;40.232;29.132;2022-07-18T14:08:27;31.20;39.60
8945;DHT22;4507;40.232;29.132;2022-07-18T14:10:57;31.10;39.80
8945;DHT22;4507;40.232;29.132;2022-07-18T14:13:26;30.90;39.90
8945;DHT22;4507;40.232;29.132;2022-07-18T14:15:54;30.90;40.20
8945;DHT22;4507;40.232;29.132;2022-07-18T14:18:23;30.80;40.40
8945;DHT22;4507;40.232;29.132;2022-07-18T14:20:52;30.70;40.60
8945;DHT22;4507;40.232;29.132;2022-07-18T14:23:20;30.60;40.70
8945;DHT22;4507;40.232;29.132;2022-07-18T14:25:50;30.50;41.00
8945;DHT22;4507;40.232;29.132;2022-07-18T14:28:19;30.50;41.20
8945;DHT22;4507;40.232;29.132;2022-07-18T14:30:48;30.40;41.40
8945;DHT22;4507;40.232;29.132;2022-07-18T14:33:35;30.40;41.30
8945;DHT22;4507;40.232;29.132;2022-07-18T14:36:04;30.20;41.30
8945;DHT22;4507;40.232;29.132;2022-07-18T14:38:33;30.20;41.40
8945;DHT22;4507;40.232;29.132;2022-07-18T14:41:04;30.10;41.20
8945;DHT22;4507;40.232;29.132;2022-07-18T14:43:53;30.10;41.20
8945;DHT22;4507;40.232;29.132;2022-07-18T14:46:22;30.00;41.50
8945;DHT22;4507;40.232;29.132;2022-07-18T14:48:51;30.00;41.50
8945;DHT22;4507;40.232;29.132;2022-07-18T14:51:20;29.90;41.70
8945;DHT22;4507;40.232;29.132;2022-07-18T14:53:49;29.90;41.60
8945;DHT22;4507;40.232;29.132;2022-07-18T14:56:19;29.80;41.80
8945;DHT22;4507;40.232;29.132;2022-07-18T14:58:47;29.70;41.70
8945;DHT22;4507;40.232;29.132;2022-07-18T15:01:16;29.70;41.90
8945;DHT22;4507;40.232;29.132;2022-07-18T15:03:46;29.60;42.20
8945;DHT22;4507;40.232;29.132;2022-07-18T15:06:26;29.50;42.40
8945;DHT22;4507;40.232;29.132;2022-07-18T15:09:02;29.50;42.40
8945;DHT22;4507;40.232;29.132;2022-07-18T15:11:32;29.50;42.10
8945;DHT22;4507;40.232;29.132;2022-07-18T15:14:01;29.40;41.90
8945;DHT22;4507;40.232;29.132;2022-07-18T15:16:29;29.30;42.00
8945;DHT22;4507;40.232;29.132;2022-07-18T15:18:58;29.20;42.20
8945;DHT22;4507;40.232;29.132;2022-07-18T15:21:27;29.20;42.50
8945;DHT22;4507;40.232;29.132;2022-07-18T15:23:56;29.10;42.50
8945;DHT22;4507;40.232;29.132;2022-07-18T15:26:25;29.10;42.70
8945;DHT22;4507;40.232;29.132;2022-07-18T15:29:14;29.00;42.80
8945;DHT22;4507;40.232;29.132;2022-07-18T15:31:43;28.90;43.00
8945;DHT22;4507;40.232;29.132;2022-07-18T15:34:14;28.80;43.00
8945;DHT22;4507;40.232;29.132;2022-07-18T15:36:42;28.80;43.20
8945;DHT22;4507;40.232;29.132;2022-07-18T15:39:11;28.70;43.40
8945;DHT22;4507;40.232;29.132;2022-07-18T15:41:40;28.60;43.60
8945;DHT22;4507;40.232;29.132;2022-07-18T15:44:29;28.60;43.70
8945;DHT22;4507;40.232;29.132;2022-07-18T15:46:57;28.50;43.90
8945;DHT22;4507;40.232;29.132;2022-07-18T15:49:28;28.40;44.20
8945;DHT22;4507;40.232;29.132;2022-07-18T15:51:56;28.30;44.40
8945;DHT22;4507;40.232;29.132;2022-07-18T15:54:25;28.30;44.50
8945;DHT22;4507;40.232;29.132;2022-07-18T15:56:54;28.20;44.60
8945;DHT22;4507;40.232;29.132;2022-07-18T15:59:22;28.20;44.80
8945;DHT22;4507;40.232;29.132;2022-07-18T16:01:52;28.10;45.20
8945;DHT22;4507;40.232;29.132;2022-07-18T16:04:22;28.10;45.20
8945;DHT22;4507;40.232;29.132;2022-07-18T16:06:51;28.00;45.40
8945;DHT22;4507;40.232;29.132;2022-07-18T16:09:19;28.00;45.50
8945;DHT22;4507;40.232;29.132;2022-07-18T16:11:50;27.90;45.60
8945;DHT22;4507;40.232;29.132;2022-07-18T16:14:19;27.80;45.90
8945;DHT22;4507;40.232;29.132;2022-07-18T16:16:47;27.80;46.10
8945;DHT22;4507;40.232;29.132;2022-07-18T16:19:17;27.70;46.20
8945;DHT22;4507;40.232;29.132;2022-07-18T16:21:46;27.60;46.30
8945;DHT22;4507;40.232;29.132;2022-07-18T16:24:15;27.60;46.60
8945;DHT22;4507;40.232;29.132;2022-07-18T16:26:44;27.50;46.90
8945;DHT22;4507;40.232;29.132;2022-07-18T16:29:12;27.40;47.00